createdAt,value
2019-05-17T00:10:09.369Z,79.2
2019-05-17T00:26:47.331Z,79.2
2019-05-17T00:43:26.235Z,79.6
2019-05-17T01:00:03.043Z,79.2
2019-05-17T01:16:40.891Z,79.6
2019-05-17T01:33:18.740Z,79.6
2019-05-17T01:49:57.620Z,79.6
2019-05-17T02:06:36.420Z,79.6
2019-05-17T02:23:11.942Z,80.0
2019-05-17T02:39:58.200Z,80.0
2019-05-17T02:56:26.960Z,80.4
2019-05-17T03:13:04.565Z,80.0
2019-05-17T03:29:42.507Z,80.0
2019-05-17T03:46:22.933Z,80.0
2019-05-17T04:02:56.834Z,80.0
2019-05-17T04:19:34.650Z,80.4
2019-05-17T04:36:13.329Z,80.4
2019-05-17T04:52:53.759Z,80.0
2019-05-17T05:04:29.726Z,79.6
2019-05-17T05:21:09.020Z,78.8
2019-05-17T05:34:28.248Z,78.8
2019-05-17T05:47:47.150Z,78.8
2019-05-17T06:04:26.327Z,78.0
2019-05-17T06:14:26.059Z,78.0
2019-05-17T06:24:25.940Z,76.8
2019-05-17T06:41:09.160Z,74.8
2019-05-17T06:57:45.616Z,74.0
2019-05-17T07:14:25.205Z,74.0
2019-05-17T07:31:04.955Z,73.6
2019-05-17T07:41:04.990Z,73.2
2019-05-17T07:57:45.410Z,71.6
2019-05-17T08:14:30.212Z,70.8
2019-05-17T08:31:06.335Z,69.6
2019-05-17T08:47:46.405Z,70.8
2019-05-17T09:04:26.652Z,70.4
2019-05-17T09:21:06.915Z,70.4
2019-05-17T09:37:49.729Z,70.8
2019-05-17T09:51:10.297Z,70.8
2019-05-17T09:54:41.394Z,69.6
2019-05-17T10:11:12.177Z,68.0
2019-05-17T10:21:10.970Z,68.0
2019-05-17T10:37:51.663Z,68.4
2019-05-17T10:44:43.579Z,68.8
2019-05-17T10:54:40.987Z,68.4
2019-05-17T11:11:20.040Z,68.4
2019-05-17T11:21:15.789Z,68.8
2019-05-17T11:37:56.833Z,68.8
2019-05-17T11:54:39.459Z,68.4
2019-05-17T12:11:19.053Z,68.8
2019-05-17T12:24:40.359Z,68.8
2019-05-17T12:34:41.721Z,68.0
2019-05-17T12:51:24.299Z,67.2
2019-05-17T13:08:06.894Z,67.2
2019-05-17T13:24:49.359Z,68.8
2019-05-17T13:31:30.566Z,67.2
2019-05-17T13:41:32.735Z,66.8
2019-05-17T13:51:35.264Z,64.0
2019-05-17T14:08:19.443Z,63.6
2019-05-17T14:21:42.666Z,64.0
2019-05-17T14:35:05.245Z,64.0
2019-05-17T14:48:27.917Z,64.4
2019-05-17T15:05:11.844Z,64.0
2019-05-17T15:21:55.066Z,64.0
2019-05-17T15:38:38.770Z,64.0
2019-05-17T15:55:22.307Z,64.0
2019-05-17T16:12:05.906Z,64.0
2019-05-17T16:28:49.758Z,63.6
2019-05-17T16:42:12.570Z,64.0
2019-05-17T16:58:55.711Z,64.4
2019-05-17T17:15:38.646Z,64.8
2019-05-17T17:32:21.969Z,65.2
2019-05-17T17:49:04.256Z,65.6
2019-05-17T18:05:46.817Z,66.0
2019-05-17T18:22:29.274Z,66.4
2019-05-17T18:39:11.804Z,66.4
2019-05-17T18:55:54.130Z,66.8
2019-05-17T19:12:36.462Z,66.4
2019-05-17T19:29:18.739Z,66.8
2019-05-17T19:46:00.880Z,66.8
2019-05-17T20:02:42.966Z,67.2
2019-05-17T20:19:24.980Z,67.6
2019-05-17T20:36:06.929Z,68.4
2019-05-17T20:52:48.576Z,68.4
2019-05-17T21:09:30.166Z,69.2
2019-05-17T21:26:11.312Z,69.6
2019-05-17T21:42:52.205Z,70.0
2019-05-17T21:59:32.988Z,70.8
2019-05-17T22:16:19.544Z,71.2
2019-05-17T22:32:53.860Z,72.0
2019-05-17T22:49:34.026Z,72.4
2019-05-17T23:06:14.135Z,72.4
2019-05-17T23:22:53.533Z,73.2
2019-05-17T23:39:33.347Z,74.0
2019-05-17T23:56:12.556Z,74.0
